createdAt,value
2023-02-23T00:01:42.293Z,40.50
2023-02-23T00:04:09.074Z,42.67
2023-02-23T00:06:37.287Z,42.50
2023-02-23T00:09:23.272Z,40.57
2023-02-23T00:11:55.182Z,39.73
2023-02-23T00:14:27.275Z,42.83
2023-02-23T00:16:57.586Z,41.10
2023-02-23T00:19:24.807Z,39.40
2023-02-23T00:21:52.263Z,39.27
2023-02-23T00:24:22.007Z,40.00
2023-02-23T00:26:51.304Z,41.00
2023-02-23T00:29:21.153Z,41.47
2023-02-23T00:31:49.256Z,42.43
2023-02-23T00:34:20.996Z,41.63
2023-02-23T00:36:51.170Z,39.57
2023-02-23T00:39:26.440Z,42.77
2023-02-23T00:41:54.951Z,43.13
2023-02-23T00:44:23.495Z,44.73
2023-02-23T00:46:51.682Z,43.17
2023-02-23T00:49:19.972Z,43.17
2023-02-23T00:51:46.962Z,42.97
2023-02-23T00:54:15.301Z,41.70
2023-02-23T00:56:41.813Z,41.37
2023-02-23T00:59:08.776Z,42.73
2023-02-23T01:01:37.370Z,41.20
2023-02-23T01:04:04.794Z,40.10
2023-02-23T01:06:31.173Z,41.80
2023-02-23T01:08:57.565Z,38.63
2023-02-23T01:11:30.917Z,43.43
2023-02-23T01:13:58.971Z,43.23
2023-02-23T01:16:30.109Z,44.43
2023-02-23T01:18:59.451Z,41.80
2023-02-23T01:21:29.409Z,41.83
2023-02-23T01:23:56.893Z,44.77
2023-02-23T01:26:29.147Z,44.53
2023-02-23T01:28:58.364Z,47.63
2023-02-23T01:31:25.725Z,44.17
2023-02-23T01:33:57.056Z,47.70
2023-02-23T01:36:25.488Z,45.33
2023-02-23T01:38:57.020Z,41.03
2023-02-23T01:41:25.013Z,40.43
2023-02-23T01:44:06.249Z,43.50
2023-02-23T01:46:34.816Z,43.63
2023-02-23T01:49:03.830Z,44.03
2023-02-23T01:51:34.337Z,47.50
2023-02-23T01:54:08.015Z,47.03
2023-02-23T01:56:37.938Z,45.37
2023-02-23T01:59:08.152Z,46.43
2023-02-23T02:01:34.710Z,44.60
2023-02-23T02:04:07.203Z,43.83
2023-02-23T02:06:36.562Z,47.93
2023-02-23T02:09:08.139Z,47.83
2023-02-23T02:11:36.215Z,45.87
2023-02-23T02:14:12.994Z,43.83
2023-02-23T02:16:42.497Z,46.47
2023-02-23T02:19:44.001Z,46.90
2023-02-23T02:22:31.215Z,47.30
2023-02-23T02:25:16.583Z,50.83
2023-02-23T02:28:14.080Z,45.43
2023-02-23T02:31:22.009Z,50.33
2023-02-23T02:34:07.275Z,44.10
2023-02-23T02:37:03.312Z,46.43
2023-02-23T02:40:16.268Z,51.60
2023-02-23T02:43:21.155Z,46.07
2023-02-23T02:46:11.708Z,47.53
2023-02-23T02:48:50.117Z,47.00
2023-02-23T02:51:30.414Z,50.30
2023-02-23T02:54:15.111Z,48.73
2023-02-23T02:56:44.051Z,49.53
2023-02-23T02:59:33.231Z,48.57
2023-02-23T03:02:18.313Z,46.63
2023-02-23T03:05:03.608Z,55.23
2023-02-23T03:07:58.865Z,49.23
2023-02-23T03:11:01.117Z,50.10
2023-02-23T03:14:20.048Z,50.40
2023-02-23T03:17:18.507Z,55.57
2023-02-23T03:20:17.396Z,58.80
2023-02-23T03:23:30.880Z,60.03
2023-02-23T03:26:31.943Z,65.75
2023-02-23T03:29:31.305Z,66.83
2023-02-23T03:32:22.148Z,64.13
2023-02-23T03:35:16.799Z,61.87
2023-02-23T03:38:15.282Z,63.13
2023-02-23T03:41:04.200Z,63.37
2023-02-23T03:43:55.868Z,65.23
2023-02-23T03:46:44.243Z,61.47
2023-02-23T03:49:32.025Z,66.53
2023-02-23T03:52:25.866Z,64.97
2023-02-23T03:55:19.620Z,60.57
2023-02-23T03:58:08.477Z,61.00
2023-02-23T04:00:59.870Z,65.30
2023-02-23T04:03:47.470Z,63.27
2023-02-23T04:06:35.824Z,66.43
2023-02-23T04:09:24.625Z,63.83
2023-02-23T04:12:24.631Z,62.13
2023-02-23T04:14:57.900Z,66.87
2023-02-23T04:17:28.323Z,65.97
2023-02-23T04:19:56.717Z,63.57
2023-02-23T04:22:24.056Z,66.17
2023-02-23T04:24:50.805Z,65.93
2023-02-23T04:27:18.188Z,63.17
2023-02-23T04:29:45.121Z,68.10
2023-02-23T04:32:15.477Z,69.77
2023-02-23T04:34:42.622Z,63.93
2023-02-23T04:37:09.046Z,67.33
2023-02-23T04:39:35.531Z,63.13
2023-02-23T04:42:02.361Z,62.93
2023-02-23T04:44:28.979Z,65.50
2023-02-23T04:46:56.677Z,65.13
2023-02-23T04:49:23.678Z,69.97
2023-02-23T04:51:50.244Z,67.83
2023-02-23T04:54:16.840Z,62.53
2023-02-23T04:56:43.175Z,63.87
2023-02-23T04:59:09.574Z,61.20
2023-02-23T05:01:37.153Z,66.77
2023-02-23T05:04:03.607Z,64.13
2023-02-23T05:06:30.904Z,60.60
2023-02-23T05:08:57.611Z,57.93
2023-02-23T05:11:24.935Z,59.10
2023-02-23T05:13:52.122Z,62.80
2023-02-23T05:16:18.516Z,58.07
2023-02-23T05:18:44.902Z,58.80
2023-02-23T05:21:11.547Z,60.43
2023-02-23T05:23:38.415Z,54.27
2023-02-23T05:26:11.040Z,53.73
2023-02-23T05:28:39.462Z,53.27
2023-02-23T05:31:06.604Z,52.03
2023-02-23T05:33:34.700Z,54.07
2023-02-23T05:36:04.859Z,57.43
2023-02-23T05:38:31.245Z,59.87
2023-02-23T05:40:57.594Z,51.67
2023-02-23T05:43:24.190Z,57.27
2023-02-23T05:45:50.711Z,59.73
2023-02-23T05:48:17.166Z,59.00
2023-02-23T05:50:43.550Z,60.40
2023-02-23T05:53:10.334Z,61.90
2023-02-23T05:55:37.523Z,59.60
2023-02-23T05:58:04.078Z,63.93
2023-02-23T06:00:30.561Z,64.93
2023-02-23T06:02:56.982Z,60.83
2023-02-23T06:05:23.409Z,69.83
2023-02-23T06:07:49.864Z,64.00
2023-02-23T06:10:16.479Z,63.57
2023-02-23T06:12:42.864Z,64.17
2023-02-23T06:15:09.908Z,67.77
2023-02-23T06:17:36.668Z,71.23
2023-02-23T06:20:04.849Z,62.23
2023-02-23T06:22:31.347Z,68.13
2023-02-23T06:24:57.727Z,66.60
2023-02-23T06:27:24.093Z,70.20
2023-02-23T06:29:50.550Z,72.43
2023-02-23T06:32:17.032Z,72.00
2023-02-23T06:34:44.772Z,73.17
2023-02-23T06:37:12.078Z,74.43
2023-02-23T06:39:38.549Z,71.27
2023-02-23T06:42:04.954Z,75.00
2023-02-23T06:44:31.460Z,72.47
2023-02-23T06:46:57.804Z,76.27
2023-02-23T06:49:24.284Z,76.73
2023-02-23T06:51:50.766Z,74.27
2023-02-23T06:54:17.631Z,80.77
2023-02-23T06:56:44.066Z,78.37
2023-02-23T06:59:10.679Z,71.73
2023-02-23T07:01:37.138Z,76.77
2023-02-23T07:04:03.762Z,77.03
2023-02-23T07:06:31.490Z,77.13
2023-02-23T07:08:58.693Z,76.23
2023-02-23T07:11:25.063Z,77.63
2023-02-23T07:13:51.575Z,71.77
2023-02-23T07:16:17.980Z,74.37
2023-02-23T07:18:44.390Z,76.57
2023-02-23T07:21:10.871Z,71.70
2023-02-23T07:23:37.303Z,76.57
2023-02-23T07:26:03.724Z,74.97
2023-02-23T07:28:30.276Z,77.03
2023-02-23T07:30:57.829Z,74.90
2023-02-23T07:33:25.219Z,70.17
2023-02-23T07:35:51.743Z,73.97
2023-02-23T07:38:18.845Z,77.07
2023-02-23T07:40:45.243Z,70.87
2023-02-23T07:43:11.745Z,74.10
2023-02-23T07:45:38.671Z,76.37
2023-02-23T07:48:05.220Z,70.77
2023-02-23T07:50:31.587Z,68.57
2023-02-23T07:52:58.009Z,70.77
2023-02-23T07:55:24.386Z,68.73
2023-02-23T07:57:50.790Z,72.70
2023-02-23T08:00:17.621Z,63.43
2023-02-23T08:02:44.025Z,64.93
2023-02-23T08:05:11.088Z,67.43
2023-02-23T08:07:37.514Z,67.23
2023-02-23T08:10:04.231Z,65.37
2023-02-23T08:12:33.649Z,64.60
2023-02-23T08:15:00.177Z,63.87
2023-02-23T08:17:27.446Z,69.03
2023-02-23T08:19:53.855Z,62.90
2023-02-23T08:22:21.445Z,63.77
2023-02-23T08:24:47.765Z,68.47
2023-02-23T08:27:14.185Z,64.33
2023-02-23T08:29:40.608Z,67.60
2023-02-23T08:32:07.068Z,59.83
2023-02-23T08:34:40.953Z,57.80
2023-02-23T08:37:07.810Z,58.57
2023-02-23T08:39:34.475Z,59.83
2023-02-23T08:42:00.811Z,58.50
2023-02-23T08:44:27.301Z,60.23
2023-02-23T08:46:55.275Z,60.40
2023-02-23T08:49:22.600Z,60.43
2023-02-23T08:51:49.026Z,55.67
2023-02-23T08:54:16.196Z,53.10
2023-02-23T08:56:43.452Z,55.90
2023-02-23T08:59:11.330Z,53.93
2023-02-23T09:01:37.695Z,51.80
2023-02-23T09:04:05.458Z,52.97
2023-02-23T09:06:32.875Z,49.70
2023-02-23T09:08:59.269Z,53.10
2023-02-23T09:11:26.358Z,66.47
2023-02-23T09:13:52.751Z,54.43
2023-02-23T09:16:19.158Z,54.40
2023-02-23T09:18:45.759Z,54.33
2023-02-23T09:21:18.827Z,62.23
2023-02-23T09:23:49.732Z,52.53
2023-02-23T09:26:18.744Z,60.70
2023-02-23T09:28:46.138Z,55.30
2023-02-23T09:31:16.245Z,59.10
2023-02-23T09:33:42.669Z,55.50
2023-02-23T09:36:17.956Z,58.17
2023-02-23T09:38:46.562Z,54.90
2023-02-23T09:41:45.753Z,53.70
2023-02-23T09:44:26.200Z,48.07
2023-02-23T09:47:04.416Z,46.13
2023-02-23T09:49:36.088Z,47.17
2023-02-23T09:52:03.883Z,38.87
2023-02-23T09:54:35.397Z,41.10
2023-02-23T09:57:06.239Z,38.73
2023-02-23T09:59:34.989Z,45.43
2023-02-23T10:02:19.536Z,37.43
2023-02-23T10:04:48.449Z,44.20
2023-02-23T10:07:34.282Z,42.80
2023-02-23T10:10:21.698Z,37.30
2023-02-23T10:13:00.766Z,42.03
2023-02-23T10:15:36.344Z,40.57
2023-02-23T10:18:46.539Z,38.50
2023-02-23T10:21:21.482Z,39.47
2023-02-23T10:23:54.107Z,44.53
2023-02-23T10:26:39.798Z,37.07
2023-02-23T10:29:20.817Z,34.67
2023-02-23T10:31:52.293Z,33.40
2023-02-23T10:34:18.959Z,38.43
2023-02-23T10:37:06.327Z,37.37
2023-02-23T10:39:33.953Z,40.87
2023-02-23T10:42:05.636Z,40.73
2023-02-23T10:44:32.489Z,43.87
2023-02-23T10:47:02.861Z,40.97
2023-02-23T10:49:40.237Z,40.43
2023-02-23T10:52:13.674Z,43.43
2023-02-23T10:54:47.525Z,38.63
2023-02-23T10:57:26.901Z,37.30
2023-02-23T11:00:18.186Z,37.27
2023-02-23T11:02:45.379Z,34.27
2023-02-23T11:05:35.117Z,35.87
2023-02-23T11:08:25.163Z,31.70
2023-02-23T11:11:06.126Z,33.33
2023-02-23T11:13:41.658Z,36.30
2023-02-23T11:16:11.697Z,33.20
2023-02-23T11:18:40.931Z,31.23
2023-02-23T11:21:13.653Z,33.30
2023-02-23T11:23:41.472Z,36.00
2023-02-23T11:26:23.104Z,34.93
2023-02-23T11:28:53.907Z,32.87
2023-02-23T11:31:23.644Z,35.30
2023-02-23T11:33:54.521Z,34.57
2023-02-23T11:36:23.947Z,33.47
2023-02-23T11:39:16.505Z,34.70
2023-02-23T11:41:43.334Z,34.33
2023-02-23T11:44:21.655Z,33.77
2023-02-23T11:46:50.748Z,33.23
2023-02-23T11:49:33.165Z,32.73
2023-02-23T11:51:59.783Z,31.60
2023-02-23T11:54:30.280Z,35.33
2023-02-23T11:56:58.067Z,34.70
2023-02-23T11:59:31.392Z,36.23
2023-02-23T12:02:20.634Z,37.57
2023-02-23T12:04:47.706Z,40.10
2023-02-23T12:07:46.339Z,38.30
2023-02-23T12:10:19.372Z,33.37
2023-02-23T12:12:57.700Z,36.27
2023-02-23T12:15:28.157Z,43.77
2023-02-23T12:18:03.906Z,40.57
2023-02-23T12:20:39.529Z,40.80
2023-02-23T12:23:12.411Z,52.53
2023-02-23T12:25:44.661Z,47.43
2023-02-23T12:28:22.680Z,49.70
2023-02-23T12:30:49.058Z,53.27
2023-02-23T12:33:21.380Z,49.33
2023-02-23T12:35:56.706Z,52.37
2023-02-23T12:38:49.353Z,50.63
2023-02-23T12:41:23.846Z,52.07
2023-02-23T12:43:59.777Z,51.80
2023-02-23T12:46:30.461Z,49.47
2023-02-23T12:49:19.521Z,54.03
2023-02-23T12:51:52.934Z,49.87
2023-02-23T12:54:19.324Z,58.13
2023-02-23T12:57:09.520Z,66.17
2023-02-23T12:59:39.006Z,56.73
2023-02-23T13:02:12.666Z,59.30
2023-02-23T13:05:02.441Z,58.53
2023-02-23T13:07:44.802Z,60.23
2023-02-23T13:10:39.927Z,65.83
2023-02-23T13:13:11.497Z,63.50
2023-02-23T13:15:57.318Z,57.27
2023-02-23T13:18:39.318Z,66.57
2023-02-23T13:21:16.603Z,59.93
2023-02-23T13:24:11.641Z,65.30
2023-02-23T13:26:53.660Z,68.13
2023-02-23T13:29:43.344Z,59.27
2023-02-23T13:32:19.142Z,61.93
2023-02-23T13:34:52.538Z,60.47
2023-02-23T13:37:23.814Z,56.67
2023-02-23T13:40:02.234Z,56.03
2023-02-23T13:43:07.627Z,54.47
2023-02-23T13:46:05.167Z,53.20
2023-02-23T13:49:04.247Z,51.87
2023-02-23T13:51:38.032Z,52.80
2023-02-23T13:54:23.002Z,51.87
2023-02-23T13:56:56.122Z,48.13
2023-02-23T13:59:25.861Z,44.67
2023-02-23T14:01:54.321Z,46.63
2023-02-23T14:04:27.415Z,43.27
2023-02-23T14:06:58.400Z,43.57
2023-02-23T14:09:36.583Z,42.47
2023-02-23T14:12:16.728Z,41.50
2023-02-23T14:14:45.447Z,47.37
2023-02-23T14:17:14.869Z,44.10
2023-02-23T14:20:24.313Z,47.93
2023-02-23T14:23:25.011Z,44.07
2023-02-23T14:26:08.768Z,47.83
2023-02-23T14:28:41.537Z,42.50
2023-02-23T14:31:11.087Z,42.77
2023-02-23T14:33:51.376Z,44.20
2023-02-23T14:36:23.814Z,43.17
2023-02-23T14:39:01.243Z,42.40
2023-02-23T14:41:33.688Z,37.57
2023-02-23T14:44:06.099Z,42.57
2023-02-23T14:46:34.912Z,38.60
2023-02-23T14:49:20.200Z,38.27
2023-02-23T14:51:51.727Z,38.77
2023-02-23T14:54:23.937Z,34.97
2023-02-23T14:56:53.431Z,35.33
2023-02-23T14:59:23.341Z,39.90
2023-02-23T15:01:51.511Z,32.47
2023-02-23T15:04:22.527Z,32.70
2023-02-23T15:06:52.711Z,30.03
2023-02-23T15:09:32.024Z,31.73
2023-02-23T15:12:00.279Z,31.63
2023-02-23T15:14:28.533Z,34.43
2023-02-23T15:16:56.700Z,29.90
2023-02-23T15:19:25.719Z,35.20
2023-02-23T15:21:54.949Z,35.60
2023-02-23T15:24:27.363Z,33.27
2023-02-23T15:26:55.653Z,35.10
2023-02-23T15:29:32.419Z,33.87
2023-02-23T15:32:21.590Z,34.80
2023-02-23T15:34:48.441Z,33.50
2023-02-23T15:37:30.687Z,34.77
2023-02-23T15:40:02.407Z,34.60
2023-02-23T15:42:45.853Z,31.73
2023-02-23T15:45:24.549Z,32.67
2023-02-23T15:47:54.148Z,28.83
2023-02-23T15:50:36.569Z,26.83
2023-02-23T15:53:13.353Z,28.43
2023-02-23T15:55:43.256Z,26.23
2023-02-23T15:58:21.828Z,26.17
2023-02-23T16:01:08.319Z,27.20
2023-02-23T16:03:37.575Z,29.83
2023-02-23T16:06:21.660Z,24.50
2023-02-23T16:08:59.467Z,24.77
2023-02-23T16:11:26.684Z,26.23
2023-02-23T16:13:54.130Z,31.27
2023-02-23T16:16:25.376Z,28.40
2023-02-23T16:19:01.694Z,26.60
2023-02-23T16:21:34.682Z,31.03
2023-02-23T16:24:08.870Z,30.03
2023-02-23T16:26:44.191Z,34.87
2023-02-23T16:29:17.867Z,33.40
2023-02-23T16:31:45.873Z,32.87
2023-02-23T16:34:24.440Z,36.30
2023-02-23T16:36:56.687Z,36.77
2023-02-23T16:39:29.062Z,34.37
2023-02-23T16:41:59.307Z,34.47
2023-02-23T16:44:34.371Z,32.17
2023-02-23T16:47:08.184Z,34.40
2023-02-23T16:49:34.507Z,38.30
2023-02-23T16:52:01.471Z,37.97
2023-02-23T16:54:28.072Z,40.13
2023-02-23T16:56:55.852Z,40.10
2023-02-23T16:59:23.349Z,40.63
2023-02-23T17:01:50.677Z,42.43
2023-02-23T17:04:18.701Z,39.33
2023-02-23T17:06:52.795Z,37.17
2023-02-23T17:09:19.219Z,39.43
2023-02-23T17:11:47.039Z,42.37
2023-02-23T17:14:24.704Z,38.00
2023-02-23T17:16:51.784Z,42.60
2023-02-23T17:19:19.355Z,37.80
2023-02-23T17:21:46.520Z,44.67
2023-02-23T17:24:12.878Z,37.13
2023-02-23T17:26:39.729Z,42.97
2023-02-23T17:29:06.116Z,42.43
2023-02-23T17:31:32.812Z,45.93
2023-02-23T17:33:59.604Z,43.73
2023-02-23T17:36:27.513Z,46.70
2023-02-23T17:38:58.787Z,42.03
2023-02-23T17:41:25.892Z,45.87
2023-02-23T17:43:52.373Z,45.87
2023-02-23T17:46:19.169Z,36.60
2023-02-23T17:48:47.145Z,41.37
2023-02-23T17:51:16.954Z,41.60
2023-02-23T17:53:43.629Z,44.77
2023-02-23T17:56:10.683Z,47.37
2023-02-23T17:58:38.224Z,40.70
2023-02-23T18:01:06.081Z,45.43
2023-02-23T18:03:34.718Z,42.60
2023-02-23T18:06:05.196Z,41.13
2023-02-23T18:08:32.406Z,44.80
2023-02-23T18:10:58.953Z,43.80
2023-02-23T18:13:26.568Z,43.50
2023-02-23T18:15:55.438Z,48.87
2023-02-23T18:18:24.051Z,43.43
2023-02-23T18:20:56.169Z,42.57
2023-02-23T18:23:23.607Z,45.87
2023-02-23T18:25:50.466Z,42.40
2023-02-23T18:28:18.279Z,49.10
2023-02-23T18:30:45.253Z,39.57
2023-02-23T18:33:13.177Z,50.87
2023-02-23T18:35:44.843Z,47.20
2023-02-23T18:38:12.725Z,49.70
2023-02-23T18:40:39.866Z,46.67
2023-02-23T18:43:06.680Z,47.50
2023-02-23T18:45:34.055Z,46.87
2023-02-23T18:48:00.779Z,49.13
2023-02-23T18:50:27.232Z,38.37
2023-02-23T18:52:55.672Z,44.20
2023-02-23T18:55:23.044Z,41.67
2023-02-23T18:57:52.583Z,43.53
2023-02-23T19:00:19.851Z,41.57
2023-02-23T19:02:46.622Z,40.27
2023-02-23T19:05:14.105Z,39.20
2023-02-23T19:07:41.057Z,39.10
2023-02-23T19:10:09.208Z,37.83
2023-02-23T19:12:36.099Z,38.00
2023-02-23T19:15:03.280Z,38.63
2023-02-23T19:17:30.236Z,36.90
2023-02-23T19:19:56.728Z,37.53
2023-02-23T19:22:23.442Z,32.53
2023-02-23T19:24:50.054Z,31.53
2023-02-23T19:27:17.281Z,33.93
2023-02-23T19:29:45.468Z,32.97
2023-02-23T19:32:16.306Z,35.80
2023-02-23T19:34:43.506Z,37.43
2023-02-23T19:37:09.903Z,40.47
2023-02-23T19:39:36.662Z,40.60
2023-02-23T19:42:03.155Z,36.53
2023-02-23T19:44:29.821Z,35.37
2023-02-23T19:46:57.152Z,37.40
2023-02-23T19:49:24.461Z,34.73
2023-02-23T19:51:52.837Z,37.17
2023-02-23T19:54:20.098Z,37.90
2023-02-23T19:56:48.102Z,33.13
2023-02-23T19:59:14.475Z,34.30
2023-02-23T20:01:40.813Z,33.73
2023-02-23T20:04:09.331Z,32.70
2023-02-23T20:06:40.937Z,34.20
2023-02-23T20:09:08.972Z,32.60
2023-02-23T20:11:35.304Z,29.73
2023-02-23T20:14:04.177Z,34.00
2023-02-23T20:16:31.106Z,34.13
2023-02-23T20:18:58.233Z,29.60
2023-02-23T20:21:26.738Z,30.60
2023-02-23T20:23:55.267Z,28.97
2023-02-23T20:26:27.441Z,29.33
2023-02-23T20:28:54.991Z,31.23
2023-02-23T20:31:35.099Z,26.10
2023-02-23T20:34:06.520Z,29.33
2023-02-23T20:36:32.968Z,29.53
2023-02-23T20:38:59.468Z,27.50
2023-02-23T20:41:28.112Z,28.07
2023-02-23T20:43:55.917Z,30.97
2023-02-23T20:46:22.684Z,33.27
2023-02-23T20:48:49.258Z,31.70
2023-02-23T20:51:18.891Z,30.43
2023-02-23T20:53:47.914Z,27.27
2023-02-23T20:56:16.842Z,31.07
2023-02-23T20:58:44.502Z,26.00
2023-02-23T21:01:15.647Z,29.23
2023-02-23T21:03:42.929Z,28.00
2023-02-23T21:06:09.762Z,30.07
2023-02-23T21:08:39.714Z,28.57
2023-02-23T21:11:07.823Z,33.17
2023-02-23T21:13:35.178Z,35.50
2023-02-23T21:16:03.050Z,34.27
2023-02-23T21:18:31.103Z,31.87
2023-02-23T21:21:06.400Z,31.83
2023-02-23T21:23:32.833Z,33.63
2023-02-23T21:26:07.502Z,28.97
2023-02-23T21:28:34.051Z,30.40
2023-02-23T21:31:00.451Z,31.63
2023-02-23T21:33:26.903Z,29.70
2023-02-23T21:35:55.187Z,31.27
2023-02-23T21:38:23.641Z,37.40
2023-02-23T21:40:50.016Z,27.97
2023-02-23T21:43:16.510Z,31.83
2023-02-23T21:45:46.625Z,32.57
2023-02-23T21:48:13.668Z,34.80
2023-02-23T21:50:40.320Z,32.80
2023-02-23T21:53:07.231Z,27.53
2023-02-23T21:55:33.594Z,29.50
2023-02-23T21:58:00.166Z,25.20
2023-02-23T22:00:27.963Z,26.53
2023-02-23T22:02:54.479Z,33.73
2023-02-23T22:05:21.128Z,26.83
2023-02-23T22:07:52.666Z,26.23
2023-02-23T22:10:21.535Z,27.83
2023-02-23T22:12:50.029Z,28.10
2023-02-23T22:15:16.516Z,28.17
2023-02-23T22:17:44.192Z,27.77
2023-02-23T22:20:11.983Z,26.77
2023-02-23T22:22:38.474Z,28.90
2023-02-23T22:25:07.006Z,26.67
2023-02-23T22:27:33.403Z,28.47
2023-02-23T22:30:01.312Z,24.60
2023-02-23T22:32:32.452Z,29.30
2023-02-23T22:35:00.152Z,26.60
2023-02-23T22:37:31.883Z,25.40
2023-02-23T22:39:59.995Z,28.93
2023-02-23T22:42:29.878Z,31.13
2023-02-23T22:44:57.097Z,29.37
2023-02-23T22:47:24.176Z,26.13
2023-02-23T22:49:50.681Z,22.67
2023-02-23T22:52:17.045Z,28.90
2023-02-23T22:54:46.064Z,24.90
2023-02-23T22:57:13.353Z,26.90
2023-02-23T22:59:39.814Z,27.97
2023-02-23T23:02:06.219Z,25.50
2023-02-23T23:04:34.360Z,24.10
2023-02-23T23:07:01.142Z,28.30
2023-02-23T23:09:28.193Z,24.60
2023-02-23T23:11:56.646Z,28.97
2023-02-23T23:14:23.496Z,24.73
2023-02-23T23:16:53.133Z,25.57
2023-02-23T23:19:24.572Z,28.07
2023-02-23T23:21:54.930Z,27.03
2023-02-23T23:24:23.658Z,25.73
2023-02-23T23:26:55.436Z,27.13
2023-02-23T23:29:23.116Z,24.33
2023-02-23T23:31:50.016Z,25.50
2023-02-23T23:34:16.824Z,21.80
2023-02-23T23:36:49.321Z,24.53
2023-02-23T23:39:21.771Z,24.80
2023-02-23T23:41:49.913Z,25.20
2023-02-23T23:44:22.636Z,25.93
2023-02-23T23:46:53.529Z,24.20
2023-02-23T23:49:22.004Z,24.07
2023-02-23T23:51:50.867Z,28.20
2023-02-23T23:54:21.383Z,27.57
2023-02-23T23:56:49.439Z,25.53
2023-02-23T23:59:20.465Z,27.30
